sensor_id;sensor_type;location;lat;lon;timestamp;temperature;humidity
1377;DHT22;682;52.502;13.488;2023-05-10T00:02:09;13.00;1.00
1377;DHT22;682;52.502;13.488;2023-05-10T00:04:39;13.00;1.00
1377;DHT22;682;52.502;13.488;2023-05-10T00:07:10;13.00;1.00
1377;DHT22;682;52.502;13.488;2023-05-10T00:09:38;12.90;1.00
1377;DHT22;682;52.502;13.488;2023-05-10T00:12:09;12.80;1.00
1377;DHT22;682;52.502;13.488;2023-05-10T00:14:41;12.80;1.00
1377;DHT22;682;52.502;13.488;2023-05-10T00:17:12;12.70;1.00
1377;DHT22;682;52.502;13.488;2023-05-10T00:19:40;12.70;1.00
1377;DHT22;682;52.502;13.488;2023-05-10T00:22:10;12.70;1.00
1377;DHT22;682;52.502;13.488;2023-05-10T00:24:40;12.60;1.00
1377;DHT22;682;52.502;13.488;2023-05-10T00:27:13;12.60;1.00
1377;DHT22;682;52.502;13.488;2023-05-10T00:29:49;12.40;1.00
1377;DHT22;682;52.502;13.488;2023-05-10T00:32:20;12.40;1.00
1377;DHT22;682;52.502;13.488;2023-05-10T00:35:01;12.30;1.00
1377;DHT22;682;52.502;13.488;2023-05-10T00:37:42;12.30;1.00
1377;DHT22;682;52.502;13.488;2023-05-10T00:40:14;12.30;1.00
1377;DHT22;682;52.502;13.488;2023-05-10T00:42:45;12.30;1.00
1377;DHT22;682;52.502;13.488;2023-05-10T00:45:18;12.20;1.00
1377;DHT22;682;52.502;13.488;2023-05-10T00:47:53;12.20;1.00
1377;DHT22;682;52.502;13.488;2023-05-10T00:50:22;12.10;1.00
1377;DHT22;682;52.502;13.488;2023-05-10T00:52:50;12.00;1.00
1377;DHT22;682;52.502;13.488;2023-05-10T00:55:20;12.00;1.00
1377;DHT22;682;52.502;13.488;2023-05-10T00:57:48;11.90;1.00
1377;DHT22;682;52.502;13.488;2023-05-10T01:00:25;11.90;1.00
1377;DHT22;682;52.502;13.488;2023-05-10T01:02:53;11.80;1.00
1377;DHT22;682;52.502;13.488;2023-05-10T01:05:21;11.70;1.00
1377;DHT22;682;52.502;13.488;2023-05-10T01:07:48;11.70;1.00
1377;DHT22;682;52.502;13.488;2023-05-10T01:10:16;11.60;1.00
1377;DHT22;682;52.502;13.488;2023-05-10T01:12:45;11.60;1.00
1377;DHT22;682;52.502;13.488;2023-05-10T01:15:14;11.50;1.00
1377;DHT22;682;52.502;13.488;2023-05-10T01:17:46;11.50;1.00
1377;DHT22;682;52.502;13.488;2023-05-10T01:20:14;11.50;1.00
1377;DHT22;682;52.502;13.488;2023-05-10T01:23:04;11.50;1.00
1377;DHT22;682;52.502;13.488;2023-05-10T01:28:53;11.40;1.00
1377;DHT22;682;52.502;13.488;2023-05-10T01:31:39;11.40;1.00
1377;DHT22;682;52.502;13.488;2023-05-10T01:34:15;11.30;1.00
1377;DHT22;682;52.502;13.488;2023-05-10T01:36:47;11.30;1.00
1377;DHT22;682;52.502;13.488;2023-05-10T01:39:21;11.20;1.00
1377;DHT22;682;52.502;13.488;2023-05-10T01:41:52;11.20;1.00
1377;DHT22;682;52.502;13.488;2023-05-10T01:44:28;11.20;1.00
1377;DHT22;682;52.502;13.488;2023-05-10T01:47:01;11.30;1.00
1377;DHT22;682;52.502;13.488;2023-05-10T01:49:34;11.20;1.00
1377;DHT22;682;52.502;13.488;2023-05-10T01:52:07;11.10;1.00
1377;DHT22;682;52.502;13.488;2023-05-10T01:54:35;11.10;1.00
1377;DHT22;682;52.502;13.488;2023-05-10T01:57:06;11.10;1.00
1377;DHT22;682;52.502;13.488;2023-05-10T01:59:37;10.90;1.00
1377;DHT22;682;52.502;13.488;2023-05-10T02:02:07;10.90;1.00
1377;DHT22;682;52.502;13.488;2023-05-10T02:04:39;10.90;1.00
1377;DHT22;682;52.502;13.488;2023-05-10T02:07:07;10.80;1.00
1377;DHT22;682;52.502;13.488;2023-05-10T02:09:36;10.90;1.00
1377;DHT22;682;52.502;13.488;2023-05-10T02:12:05;10.90;1.00
1377;DHT22;682;52.502;13.488;2023-05-10T02:14:36;10.90;1.00
1377;DHT22;682;52.502;13.488;2023-05-10T02:17:05;10.90;1.00
1377;DHT22;682;52.502;13.488;2023-05-10T02:19:34;10.80;1.00
1377;DHT22;682;52.502;13.488;2023-05-10T02:22:04;10.80;1.00
1377;DHT22;682;52.502;13.488;2023-05-10T02:24:32;10.80;1.00
1377;DHT22;682;52.502;13.488;2023-05-10T02:27:01;10.80;1.00
1377;DHT22;682;52.502;13.488;2023-05-10T02:29:31;10.80;1.00
1377;DHT22;682;52.502;13.488;2023-05-10T02:31:58;10.70;1.00
1377;DHT22;682;52.502;13.488;2023-05-10T02:34:27;10.70;1.00
1377;DHT22;682;52.502;13.488;2023-05-10T02:36:55;10.70;1.00
1377;DHT22;682;52.502;13.488;2023-05-10T02:39:25;10.70;1.00
1377;DHT22;682;52.502;13.488;2023-05-10T02:41:54;10.70;1.00
1377;DHT22;682;52.502;13.488;2023-05-10T02:44:26;10.70;1.00
1377;DHT22;682;52.502;13.488;2023-05-10T02:46:56;10.70;1.00
1377;DHT22;682;52.502;13.488;2023-05-10T02:49:24;10.70;1.00
1377;DHT22;682;52.502;13.488;2023-05-10T02:51:55;10.60;1.00
1377;DHT22;682;52.502;13.488;2023-05-10T02:54:30;10.60;1.00
1377;DHT22;682;52.502;13.488;2023-05-10T02:57:00;10.60;1.00
1377;DHT22;682;52.502;13.488;2023-05-10T02:59:31;10.50;1.00
1377;DHT22;682;52.502;13.488;2023-05-10T03:01:59;10.50;1.00
1377;DHT22;682;52.502;13.488;2023-05-10T03:04:26;10.50;1.00
1377;DHT22;682;52.502;13.488;2023-05-10T03:06:53;10.40;1.00
1377;DHT22;682;52.502;13.488;2023-05-10T03:09:21;10.40;1.00
1377;DHT22;682;52.502;13.488;2023-05-10T03:12:00;10.40;1.00
1377;DHT22;682;52.502;13.488;2023-05-10T03:14:39;10.30;1.00
1377;DHT22;682;52.502;13.488;2023-05-10T03:17:23;10.30;1.00
1377;DHT22;682;52.502;13.488;2023-05-10T03:19:54;10.20;1.00
1377;DHT22;682;52.502;13.488;2023-05-10T03:22:24;10.20;1.00
1377;DHT22;682;52.502;13.488;2023-05-10T03:24:55;10.20;1.00
1377;DHT22;682;52.502;13.488;2023-05-10T03:27:26;10.20;1.00
1377;DHT22;682;52.502;13.488;2023-05-10T03:29:55;10.20;1.00
1377;DHT22;682;52.502;13.488;2023-05-10T03:32:23;10.30;1.00
1377;DHT22;682;52.502;13.488;2023-05-10T03:34:54;10.30;1.00
1377;DHT22;682;52.502;13.488;2023-05-10T03:37:21;10.30;1.00
1377;DHT22;682;52.502;13.488;2023-05-10T03:39:48;10.30;1.00
1377;DHT22;682;52.502;13.488;2023-05-10T03:42:15;10.30;1.00
1377;DHT22;682;52.502;13.488;2023-05-10T03:44:46;10.20;1.00
1377;DHT22;682;52.502;13.488;2023-05-10T03:47:14;10.20;1.00
1377;DHT22;682;52.502;13.488;2023-05-10T03:49:41;10.20;1.00
1377;DHT22;682;52.502;13.488;2023-05-10T03:52:09;10.20;1.00
1377;DHT22;682;52.502;13.488;2023-05-10T03:54:36;10.30;1.00
1377;DHT22;682;52.502;13.488;2023-05-10T03:57:05;10.30;1.00
1377;DHT22;682;52.502;13.488;2023-05-10T03:59:33;10.30;1.00
1377;DHT22;682;52.502;13.488;2023-05-10T04:02:02;10.30;1.00
1377;DHT22;682;52.502;13.488;2023-05-10T04:04:29;10.30;1.00
1377;DHT22;682;52.502;13.488;2023-05-10T04:06:56;10.30;1.00
1377;DHT22;682;52.502;13.488;2023-05-10T04:09:23;10.30;1.00
1377;DHT22;682;52.502;13.488;2023-05-10T04:11:59;10.40;1.00
1377;DHT22;682;52.502;13.488;2023-05-10T04:14:27;10.40;1.00
1377;DHT22;682;52.502;13.488;2023-05-10T04:16:54;10.40;1.00
1377;DHT22;682;52.502;13.488;2023-05-10T04:19:23;10.50;1.00
1377;DHT22;682;52.502;13.488;2023-05-10T04:21:51;10.60;1.00
1377;DHT22;682;52.502;13.488;2023-05-10T04:24:19;10.60;1.00
1377;DHT22;682;52.502;13.488;2023-05-10T04:26:46;10.70;1.00
1377;DHT22;682;52.502;13.488;2023-05-10T04:29:15;10.70;1.00
1377;DHT22;682;52.502;13.488;2023-05-10T04:31:42;10.80;1.00
1377;DHT22;682;52.502;13.488;2023-05-10T04:34:09;10.80;1.00
1377;DHT22;682;52.502;13.488;2023-05-10T04:36:37;10.80;1.00
1377;DHT22;682;52.502;13.488;2023-05-10T04:39:05;10.80;1.00
1377;DHT22;682;52.502;13.488;2023-05-10T04:41:32;10.90;1.00
1377;DHT22;682;52.502;13.488;2023-05-10T04:43:59;10.90;1.00
1377;DHT22;682;52.502;13.488;2023-05-10T04:46:26;11.00;1.00
1377;DHT22;682;52.502;13.488;2023-05-10T04:48:53;11.00;1.00
1377;DHT22;682;52.502;13.488;2023-05-10T04:51:23;11.00;1.00
1377;DHT22;682;52.502;13.488;2023-05-10T04:53:52;11.10;1.00
1377;DHT22;682;52.502;13.488;2023-05-10T04:56:19;11.20;1.00
1377;DHT22;682;52.502;13.488;2023-05-10T04:58:47;11.30;1.00
1377;DHT22;682;52.502;13.488;2023-05-10T05:01:15;11.30;1.00
1377;DHT22;682;52.502;13.488;2023-05-10T05:03:42;11.40;1.00
1377;DHT22;682;52.502;13.488;2023-05-10T05:06:09;11.40;1.00
1377;DHT22;682;52.502;13.488;2023-05-10T05:08:36;11.50;1.00
1377;DHT22;682;52.502;13.488;2023-05-10T05:11:04;11.60;1.00
1377;DHT22;682;52.502;13.488;2023-05-10T05:13:31;11.70;1.00
1377;DHT22;682;52.502;13.488;2023-05-10T05:16:01;11.80;1.00
1377;DHT22;682;52.502;13.488;2023-05-10T05:18:28;11.90;1.00
1377;DHT22;682;52.502;13.488;2023-05-10T05:20:55;12.00;1.00
1377;DHT22;682;52.502;13.488;2023-05-10T05:23:23;12.00;1.00
1377;DHT22;682;52.502;13.488;2023-05-10T05:25:51;12.10;1.00
1377;DHT22;682;52.502;13.488;2023-05-10T05:28:20;12.30;1.00
1377;DHT22;682;52.502;13.488;2023-05-10T05:30:48;12.40;1.00
1377;DHT22;682;52.502;13.488;2023-05-10T05:33:15;12.50;1.00
1377;DHT22;682;52.502;13.488;2023-05-10T05:35:43;12.50;1.00
1377;DHT22;682;52.502;13.488;2023-05-10T05:38:13;12.70;1.00
1377;DHT22;682;52.502;13.488;2023-05-10T05:40:41;12.80;1.00
1377;DHT22;682;52.502;13.488;2023-05-10T05:43:08;12.90;1.00
1377;DHT22;682;52.502;13.488;2023-05-10T05:45:36;13.00;1.00
1377;DHT22;682;52.502;13.488;2023-05-10T05:48:05;13.10;1.00
1377;DHT22;682;52.502;13.488;2023-05-10T05:50:33;13.30;1.00
1377;DHT22;682;52.502;13.488;2023-05-10T05:53:01;13.40;1.00
1377;DHT22;682;52.502;13.488;2023-05-10T05:55:30;13.50;1.00
1377;DHT22;682;52.502;13.488;2023-05-10T05:57:57;13.70;1.00
1377;DHT22;682;52.502;13.488;2023-05-10T06:00:24;13.60;1.00
1377;DHT22;682;52.502;13.488;2023-05-10T06:02:53;13.80;1.00
1377;DHT22;682;52.502;13.488;2023-05-10T06:05:20;14.00;1.00
1377;DHT22;682;52.502;13.488;2023-05-10T06:07:47;14.00;1.00
1377;DHT22;682;52.502;13.488;2023-05-10T06:10:15;14.00;1.00
1377;DHT22;682;52.502;13.488;2023-05-10T06:12:43;14.10;1.00
1377;DHT22;682;52.502;13.488;2023-05-10T06:15:11;14.20;1.00
1377;DHT22;682;52.502;13.488;2023-05-10T06:17:37;14.50;1.00
1377;DHT22;682;52.502;13.488;2023-05-10T06:20:08;14.50;1.00
1377;DHT22;682;52.502;13.488;2023-05-10T06:22:35;14.70;1.00
1377;DHT22;682;52.502;13.488;2023-05-10T06:25:02;14.80;1.00
1377;DHT22;682;52.502;13.488;2023-05-10T06:27:30;14.80;1.00
1377;DHT22;682;52.502;13.488;2023-05-10T06:29:57;14.80;1.00
1377;DHT22;682;52.502;13.488;2023-05-10T06:32:24;14.80;1.00
1377;DHT22;682;52.502;13.488;2023-05-10T06:34:51;14.90;1.00
1377;DHT22;682;52.502;13.488;2023-05-10T06:37:20;15.10;1.00
1377;DHT22;682;52.502;13.488;2023-05-10T06:39:47;15.10;1.00
1377;DHT22;682;52.502;13.488;2023-05-10T06:42:14;15.20;1.00
1377;DHT22;682;52.502;13.488;2023-05-10T06:44:41;15.30;1.00
1377;DHT22;682;52.502;13.488;2023-05-10T06:47:09;15.20;1.00
1377;DHT22;682;52.502;13.488;2023-05-10T06:49:36;15.20;1.00
1377;DHT22;682;52.502;13.488;2023-05-10T06:52:03;15.30;1.00
1377;DHT22;682;52.502;13.488;2023-05-10T06:54:32;15.30;1.00
1377;DHT22;682;52.502;13.488;2023-05-10T06:56:59;15.20;1.00
1377;DHT22;682;52.502;13.488;2023-05-10T06:59:30;15.20;1.00
1377;DHT22;682;52.502;13.488;2023-05-10T07:01:57;15.30;1.00
1377;DHT22;682;52.502;13.488;2023-05-10T07:04:24;15.40;1.00
1377;DHT22;682;52.502;13.488;2023-05-10T07:06:51;15.60;1.00
1377;DHT22;682;52.502;13.488;2023-05-10T07:09:18;15.60;1.00
1377;DHT22;682;52.502;13.488;2023-05-10T07:11:46;15.80;1.00
1377;DHT22;682;52.502;13.488;2023-05-10T07:14:13;15.90;1.00
1377;DHT22;682;52.502;13.488;2023-05-10T07:16:41;16.00;1.00
1377;DHT22;682;52.502;13.488;2023-05-10T07:19:08;16.00;1.00
1377;DHT22;682;52.502;13.488;2023-05-10T07:21:34;16.00;1.00
1377;DHT22;682;52.502;13.488;2023-05-10T07:24:03;16.10;1.00
1377;DHT22;682;52.502;13.488;2023-05-10T07:26:30;16.20;1.00
1377;DHT22;682;52.502;13.488;2023-05-10T07:29:00;16.30;1.00
1377;DHT22;682;52.502;13.488;2023-05-10T07:31:27;16.40;1.00
1377;DHT22;682;52.502;13.488;2023-05-10T07:33:55;16.60;1.00
1377;DHT22;682;52.502;13.488;2023-05-10T07:36:23;16.70;1.00
1377;DHT22;682;52.502;13.488;2023-05-10T07:38:50;16.90;1.00
1377;DHT22;682;52.502;13.488;2023-05-10T07:41:18;16.90;1.00
1377;DHT22;682;52.502;13.488;2023-05-10T07:43:46;16.90;1.00
1377;DHT22;682;52.502;13.488;2023-05-10T07:46:16;17.00;1.00
1377;DHT22;682;52.502;13.488;2023-05-10T07:48:44;17.20;1.00
1377;DHT22;682;52.502;13.488;2023-05-10T07:51:11;17.30;1.00
1377;DHT22;682;52.502;13.488;2023-05-10T07:53:39;17.40;1.00
1377;DHT22;682;52.502;13.488;2023-05-10T07:56:21;17.60;1.00
1377;DHT22;682;52.502;13.488;2023-05-10T07:58:49;17.60;1.00
1377;DHT22;682;52.502;13.488;2023-05-10T08:01:18;17.70;1.00
1377;DHT22;682;52.502;13.488;2023-05-10T08:03:45;17.70;1.00
1377;DHT22;682;52.502;13.488;2023-05-10T08:06:13;17.90;1.00
1377;DHT22;682;52.502;13.488;2023-05-10T08:08:41;18.00;1.00
1377;DHT22;682;52.502;13.488;2023-05-10T08:11:08;18.20;1.00
1377;DHT22;682;52.502;13.488;2023-05-10T08:13:35;18.30;1.00
1377;DHT22;682;52.502;13.488;2023-05-10T08:16:04;18.50;1.00
1377;DHT22;682;52.502;13.488;2023-05-10T08:18:32;18.70;1.00
1377;DHT22;682;52.502;13.488;2023-05-10T08:20:59;18.80;1.00
1377;DHT22;682;52.502;13.488;2023-05-10T08:23:26;18.80;1.00
1377;DHT22;682;52.502;13.488;2023-05-10T08:25:55;18.70;1.00
1377;DHT22;682;52.502;13.488;2023-05-10T08:28:22;18.60;1.00
1377;DHT22;682;52.502;13.488;2023-05-10T08:30:50;18.70;1.00
1377;DHT22;682;52.502;13.488;2023-05-10T08:33:18;18.80;1.00
1377;DHT22;682;52.502;13.488;2023-05-10T08:35:46;18.90;1.00
1377;DHT22;682;52.502;13.488;2023-05-10T08:38:13;19.00;1.00
1377;DHT22;682;52.502;13.488;2023-05-10T08:40:42;19.20;1.00
1377;DHT22;682;52.502;13.488;2023-05-10T08:43:10;19.30;1.00
1377;DHT22;682;52.502;13.488;2023-05-10T08:45:40;19.10;1.00
1377;DHT22;682;52.502;13.488;2023-05-10T08:48:07;19.20;1.00
1377;DHT22;682;52.502;13.488;2023-05-10T08:50:36;19.10;1.00
1377;DHT22;682;52.502;13.488;2023-05-10T08:53:06;19.20;1.00
1377;DHT22;682;52.502;13.488;2023-05-10T08:55:37;19.40;1.00
1377;DHT22;682;52.502;13.488;2023-05-10T08:58:05;19.50;1.00
1377;DHT22;682;52.502;13.488;2023-05-10T09:00:33;19.40;1.00
1377;DHT22;682;52.502;13.488;2023-05-10T09:03:02;19.70;1.00
1377;DHT22;682;52.502;13.488;2023-05-10T09:05:29;19.90;1.00
1377;DHT22;682;52.502;13.488;2023-05-10T09:07:56;20.20;1.00
1377;DHT22;682;52.502;13.488;2023-05-10T09:10:26;20.20;1.00
1377;DHT22;682;52.502;13.488;2023-05-10T09:12:54;20.30;1.00
1377;DHT22;682;52.502;13.488;2023-05-10T09:15:22;20.40;1.00
1377;DHT22;682;52.502;13.488;2023-05-10T09:17:50;20.40;1.00
1377;DHT22;682;52.502;13.488;2023-05-10T09:20:19;20.60;1.00
1377;DHT22;682;52.502;13.488;2023-05-10T09:22:46;21.00;1.00
1377;DHT22;682;52.502;13.488;2023-05-10T09:25:14;21.60;1.00
1377;DHT22;682;52.502;13.488;2023-05-10T09:27:45;22.60;1.00
1377;DHT22;682;52.502;13.488;2023-05-10T09:30:16;23.90;1.00
1377;DHT22;682;52.502;13.488;2023-05-10T09:32:46;24.40;1.00
1377;DHT22;682;52.502;13.488;2023-05-10T09:35:15;24.80;1.00
1377;DHT22;682;52.502;13.488;2023-05-10T09:37:44;25.30;1.00
1377;DHT22;682;52.502;13.488;2023-05-10T09:40:14;25.80;1.00
1377;DHT22;682;52.502;13.488;2023-05-10T09:42:51;26.00;1.00
1377;DHT22;682;52.502;13.488;2023-05-10T09:45:19;26.60;1.00
1377;DHT22;682;52.502;13.488;2023-05-10T09:47:46;27.00;1.00
1377;DHT22;682;52.502;13.488;2023-05-10T09:50:13;27.10;1.00
1377;DHT22;682;52.502;13.488;2023-05-10T09:52:48;27.30;1.00
1377;DHT22;682;52.502;13.488;2023-05-10T09:55:19;27.50;1.00
1377;DHT22;682;52.502;13.488;2023-05-10T09:57:58;27.40;1.00
1377;DHT22;682;52.502;13.488;2023-05-10T10:00:27;28.00;1.00
1377;DHT22;682;52.502;13.488;2023-05-10T10:02:57;27.70;1.00
1377;DHT22;682;52.502;13.488;2023-05-10T10:05:28;27.60;1.00
1377;DHT22;682;52.502;13.488;2023-05-10T10:07:57;27.80;1.00
1377;DHT22;682;52.502;13.488;2023-05-10T10:10:25;28.60;1.00
1377;DHT22;682;52.502;13.488;2023-05-10T10:12:55;30.00;1.00
1377;DHT22;682;52.502;13.488;2023-05-10T10:15:23;30.00;1.00
1377;DHT22;682;52.502;13.488;2023-05-10T10:17:51;28.90;1.00
1377;DHT22;682;52.502;13.488;2023-05-10T10:20:22;29.40;1.00
1377;DHT22;682;52.502;13.488;2023-05-10T10:22:50;29.60;1.00
1377;DHT22;682;52.502;13.488;2023-05-10T10:25:20;30.20;1.00
1377;DHT22;682;52.502;13.488;2023-05-10T10:28:08;30.50;1.00
1377;DHT22;682;52.502;13.488;2023-05-10T10:30:41;30.40;1.00
1377;DHT22;682;52.502;13.488;2023-05-10T10:33:28;30.20;1.00
1377;DHT22;682;52.502;13.488;2023-05-10T10:36:00;30.70;1.00
1377;DHT22;682;52.502;13.488;2023-05-10T10:38:36;30.40;1.00
1377;DHT22;682;52.502;13.488;2023-05-10T10:41:10;31.00;1.00
1377;DHT22;682;52.502;13.488;2023-05-10T10:43:41;31.60;1.00
1377;DHT22;682;52.502;13.488;2023-05-10T10:46:10;32.70;1.00
1377;DHT22;682;52.502;13.488;2023-05-10T10:48:38;32.90;1.00
1377;DHT22;682;52.502;13.488;2023-05-10T10:51:07;32.70;1.00
1377;DHT22;682;52.502;13.488;2023-05-10T10:53:35;33.40;1.00
1377;DHT22;682;52.502;13.488;2023-05-10T10:56:07;32.10;1.00
1377;DHT22;682;52.502;13.488;2023-05-10T10:58:36;32.30;1.00
1377;DHT22;682;52.502;13.488;2023-05-10T11:01:15;32.60;1.00
1377;DHT22;682;52.502;13.488;2023-05-10T11:04:17;32.90;1.00
1377;DHT22;682;52.502;13.488;2023-05-10T11:07:16;33.90;1.00
1377;DHT22;682;52.502;13.488;2023-05-10T11:09:46;34.90;1.00
1377;DHT22;682;52.502;13.488;2023-05-10T11:12:14;35.00;1.00
1377;DHT22;682;52.502;13.488;2023-05-10T11:14:41;33.90;1.00
1377;DHT22;682;52.502;13.488;2023-05-10T11:17:26;34.20;1.00
1377;DHT22;682;52.502;13.488;2023-05-10T11:20:07;34.40;1.00
1377;DHT22;682;52.502;13.488;2023-05-10T11:22:49;33.50;1.00
1377;DHT22;682;52.502;13.488;2023-05-10T11:25:17;32.90;1.00
1377;DHT22;682;52.502;13.488;2023-05-10T11:27:44;32.90;1.00
1377;DHT22;682;52.502;13.488;2023-05-10T11:30:12;32.60;1.00
1377;DHT22;682;52.502;13.488;2023-05-10T11:32:42;33.50;1.00
1377;DHT22;682;52.502;13.488;2023-05-10T11:35:11;34.20;1.00
1377;DHT22;682;52.502;13.488;2023-05-10T11:37:39;35.40;1.00
1377;DHT22;682;52.502;13.488;2023-05-10T11:40:21;36.40;1.00
1377;DHT22;682;52.502;13.488;2023-05-10T11:42:50;35.90;1.00
1377;DHT22;682;52.502;13.488;2023-05-10T11:45:17;35.00;1.00
1377;DHT22;682;52.502;13.488;2023-05-10T11:47:48;35.30;1.00
1377;DHT22;682;52.502;13.488;2023-05-10T11:50:17;34.70;1.00
1377;DHT22;682;52.502;13.488;2023-05-10T11:52:44;35.20;1.00
1377;DHT22;682;52.502;13.488;2023-05-10T11:55:12;35.80;1.00
1377;DHT22;682;52.502;13.488;2023-05-10T11:57:39;36.30;1.00
1377;DHT22;682;52.502;13.488;2023-05-10T12:00:10;36.70;1.00
1377;DHT22;682;52.502;13.488;2023-05-10T12:02:37;35.90;1.00
1377;DHT22;682;52.502;13.488;2023-05-10T12:05:08;35.90;1.00
1377;DHT22;682;52.502;13.488;2023-05-10T12:07:39;35.60;1.00
1377;DHT22;682;52.502;13.488;2023-05-10T12:10:09;35.70;1.00
1377;DHT22;682;52.502;13.488;2023-05-10T12:12:38;36.30;1.00
1377;DHT22;682;52.502;13.488;2023-05-10T12:15:10;36.70;1.00
1377;DHT22;682;52.502;13.488;2023-05-10T12:17:38;35.80;1.00
1377;DHT22;682;52.502;13.488;2023-05-10T12:20:18;35.10;1.00
1377;DHT22;682;52.502;13.488;2023-05-10T12:22:48;34.90;1.00
1377;DHT22;682;52.502;13.488;2023-05-10T12:25:15;35.30;1.00
1377;DHT22;682;52.502;13.488;2023-05-10T12:27:53;35.70;1.00
1377;DHT22;682;52.502;13.488;2023-05-10T12:30:23;36.50;1.00
1377;DHT22;682;52.502;13.488;2023-05-10T12:32:50;36.90;1.00
1377;DHT22;682;52.502;13.488;2023-05-10T12:35:19;37.70;1.00
1377;DHT22;682;52.502;13.488;2023-05-10T12:37:50;38.30;1.00
1377;DHT22;682;52.502;13.488;2023-05-10T12:40:18;38.60;1.00
1377;DHT22;682;52.502;13.488;2023-05-10T12:42:45;38.80;1.00
1377;DHT22;682;52.502;13.488;2023-05-10T12:45:13;38.30;1.00
1377;DHT22;682;52.502;13.488;2023-05-10T12:47:41;38.10;1.00
1377;DHT22;682;52.502;13.488;2023-05-10T12:50:09;37.20;1.00
1377;DHT22;682;52.502;13.488;2023-05-10T12:52:38;36.90;1.00
1377;DHT22;682;52.502;13.488;2023-05-10T12:55:05;36.80;1.00
1377;DHT22;682;52.502;13.488;2023-05-10T12:57:34;36.10;1.00
1377;DHT22;682;52.502;13.488;2023-05-10T13:00:02;36.30;1.00
1377;DHT22;682;52.502;13.488;2023-05-10T13:02:30;36.80;1.00
1377;DHT22;682;52.502;13.488;2023-05-10T13:04:59;37.50;1.00
1377;DHT22;682;52.502;13.488;2023-05-10T13:07:26;36.80;1.00
1377;DHT22;682;52.502;13.488;2023-05-10T13:09:55;35.40;1.00
1377;DHT22;682;52.502;13.488;2023-05-10T13:12:22;35.90;1.00
1377;DHT22;682;52.502;13.488;2023-05-10T13:14:49;36.60;1.00
1377;DHT22;682;52.502;13.488;2023-05-10T13:17:16;36.90;1.00
1377;DHT22;682;52.502;13.488;2023-05-10T13:19:43;37.00;1.00
1377;DHT22;682;52.502;13.488;2023-05-10T13:22:10;37.30;1.00
1377;DHT22;682;52.502;13.488;2023-05-10T13:24:37;36.70;1.00
1377;DHT22;682;52.502;13.488;2023-05-10T13:27:06;37.00;1.00
1377;DHT22;682;52.502;13.488;2023-05-10T13:29:33;37.20;1.00
1377;DHT22;682;52.502;13.488;2023-05-10T13:32:02;37.90;1.00
1377;DHT22;682;52.502;13.488;2023-05-10T13:34:30;37.20;1.00
1377;DHT22;682;52.502;13.488;2023-05-10T13:36:57;37.50;1.00
1377;DHT22;682;52.502;13.488;2023-05-10T13:39:25;36.70;1.00
1377;DHT22;682;52.502;13.488;2023-05-10T13:41:52;37.40;1.00
1377;DHT22;682;52.502;13.488;2023-05-10T13:44:21;38.10;1.00
1377;DHT22;682;52.502;13.488;2023-05-10T13:46:49;38.60;1.00
1377;DHT22;682;52.502;13.488;2023-05-10T13:49:17;39.10;1.00
1377;DHT22;682;52.502;13.488;2023-05-10T13:51:44;38.80;1.00
1377;DHT22;682;52.502;13.488;2023-05-10T13:54:15;37.60;1.00
1377;DHT22;682;52.502;13.488;2023-05-10T13:56:46;37.00;1.00
1377;DHT22;682;52.502;13.488;2023-05-10T13:59:14;37.10;1.00
1377;DHT22;682;52.502;13.488;2023-05-10T14:01:42;37.90;1.00
1377;DHT22;682;52.502;13.488;2023-05-10T14:04:10;38.10;1.00
1377;DHT22;682;52.502;13.488;2023-05-10T14:06:39;37.10;1.00
1377;DHT22;682;52.502;13.488;2023-05-10T14:09:06;36.80;1.00
1377;DHT22;682;52.502;13.488;2023-05-10T14:11:34;36.80;1.00
1377;DHT22;682;52.502;13.488;2023-05-10T14:14:07;36.50;1.00
1377;DHT22;682;52.502;13.488;2023-05-10T14:16:44;36.80;1.00
1377;DHT22;682;52.502;13.488;2023-05-10T14:19:12;37.40;1.00
1377;DHT22;682;52.502;13.488;2023-05-10T14:21:39;38.10;1.00
1377;DHT22;682;52.502;13.488;2023-05-10T14:24:09;38.20;1.00
1377;DHT22;682;52.502;13.488;2023-05-10T14:26:37;37.00;1.00
1377;DHT22;682;52.502;13.488;2023-05-10T14:29:05;37.00;1.00
1377;DHT22;682;52.502;13.488;2023-05-10T14:31:32;37.80;1.00
1377;DHT22;682;52.502;13.488;2023-05-10T14:34:01;36.80;1.00
1377;DHT22;682;52.502;13.488;2023-05-10T14:36:32;36.30;1.00
1377;DHT22;682;52.502;13.488;2023-05-10T14:39:04;35.90;1.00
1377;DHT22;682;52.502;13.488;2023-05-10T14:41:32;35.70;1.00
1377;DHT22;682;52.502;13.488;2023-05-10T14:44:01;35.30;1.00
1377;DHT22;682;52.502;13.488;2023-05-10T14:46:29;35.40;1.00
1377;DHT22;682;52.502;13.488;2023-05-10T14:49:02;35.20;1.00
1377;DHT22;682;52.502;13.488;2023-05-10T14:51:31;35.40;1.00
1377;DHT22;682;52.502;13.488;2023-05-10T14:53:58;35.80;1.00
1377;DHT22;682;52.502;13.488;2023-05-10T14:56:25;36.40;1.00
1377;DHT22;682;52.502;13.488;2023-05-10T14:58:58;36.80;1.00
1377;DHT22;682;52.502;13.488;2023-05-10T15:01:26;37.50;1.00
1377;DHT22;682;52.502;13.488;2023-05-10T15:03:53;37.20;1.00
1377;DHT22;682;52.502;13.488;2023-05-10T15:06:31;36.00;1.00
1377;DHT22;682;52.502;13.488;2023-05-10T15:09:00;34.30;1.00
1377;DHT22;682;52.502;13.488;2023-05-10T15:11:27;34.50;1.00
1377;DHT22;682;52.502;13.488;2023-05-10T15:13:54;35.40;1.00
1377;DHT22;682;52.502;13.488;2023-05-10T15:16:22;35.40;1.00
1377;DHT22;682;52.502;13.488;2023-05-10T15:18:50;34.50;1.00
1377;DHT22;682;52.502;13.488;2023-05-10T15:21:23;34.60;1.00
1377;DHT22;682;52.502;13.488;2023-05-10T15:23:54;35.20;1.00
1377;DHT22;682;52.502;13.488;2023-05-10T15:26:22;35.40;1.00
1377;DHT22;682;52.502;13.488;2023-05-10T15:28:53;35.30;1.00
1377;DHT22;682;52.502;13.488;2023-05-10T15:31:21;35.10;1.00
1377;DHT22;682;52.502;13.488;2023-05-10T15:33:48;34.40;1.00
1377;DHT22;682;52.502;13.488;2023-05-10T15:36:16;32.80;1.00
1377;DHT22;682;52.502;13.488;2023-05-10T15:38:47;31.80;1.00
1377;DHT22;682;52.502;13.488;2023-05-10T15:41:17;31.40;1.00
1377;DHT22;682;52.502;13.488;2023-05-10T15:43:46;31.60;1.00
1377;DHT22;682;52.502;13.488;2023-05-10T15:46:13;32.00;1.00
1377;DHT22;682;52.502;13.488;2023-05-10T15:48:49;32.30;1.00
1377;DHT22;682;52.502;13.488;2023-05-10T15:51:20;32.40;1.00
1377;DHT22;682;52.502;13.488;2023-05-10T15:53:48;32.00;1.00
1377;DHT22;682;52.502;13.488;2023-05-10T15:56:18;31.70;1.00
1377;DHT22;682;52.502;13.488;2023-05-10T15:58:45;31.30;1.00
1377;DHT22;682;52.502;13.488;2023-05-10T16:01:14;31.30;1.00
1377;DHT22;682;52.502;13.488;2023-05-10T16:03:42;31.50;1.00
1377;DHT22;682;52.502;13.488;2023-05-10T16:06:10;31.60;1.00
1377;DHT22;682;52.502;13.488;2023-05-10T16:08:37;31.80;1.00
1377;DHT22;682;52.502;13.488;2023-05-10T16:11:04;31.90;1.00
1377;DHT22;682;52.502;13.488;2023-05-10T16:13:36;31.80;1.00
1377;DHT22;682;52.502;13.488;2023-05-10T16:16:04;31.60;1.00
1377;DHT22;682;52.502;13.488;2023-05-10T16:18:33;31.30;1.00
1377;DHT22;682;52.502;13.488;2023-05-10T16:21:00;31.50;1.00
1377;DHT22;682;52.502;13.488;2023-05-10T16:23:29;31.20;1.00
1377;DHT22;682;52.502;13.488;2023-05-10T16:25:56;31.00;1.00
1377;DHT22;682;52.502;13.488;2023-05-10T16:28:27;30.20;1.00
1377;DHT22;682;52.502;13.488;2023-05-10T16:30:59;29.10;1.00
1377;DHT22;682;52.502;13.488;2023-05-10T16:33:31;27.70;1.00
1377;DHT22;682;52.502;13.488;2023-05-10T16:36:01;27.40;1.00